createdAt,value
2019-04-21T00:01:20.186Z,7.55
2019-04-21T00:03:54.915Z,7.25
2019-04-21T00:06:41.105Z,7.23
2019-04-21T00:09:11.544Z,7.11
2019-04-21T00:11:43.830Z,6.98
2019-04-21T00:14:01.884Z,7.07
2019-04-21T00:16:32.110Z,7.08
2019-04-21T00:19:03.259Z,7.11
2019-04-21T00:21:35.413Z,7.09
2019-04-21T00:24:16.494Z,7.01
2019-04-21T00:26:49.301Z,7.01
2019-04-21T00:29:28.410Z,6.95
2019-04-21T00:31:45.770Z,7.00
2019-04-21T00:34:02.674Z,6.86
2019-04-21T00:36:44.166Z,6.95
2019-04-21T00:39:31.705Z,6.76
2019-04-21T00:41:57.704Z,6.87
2019-04-21T00:44:14.293Z,6.86
2019-04-21T00:46:47.205Z,6.85
2019-04-21T00:49:22.482Z,6.84
2019-04-21T00:52:22.087Z,6.72
2019-04-21T00:55:03.931Z,6.76
2019-04-21T00:57:29.435Z,6.72
2019-04-21T00:59:52.588Z,6.27
2019-04-21T01:02:24.770Z,6.24
2019-04-21T01:05:00.232Z,6.33
2019-04-21T01:07:21.942Z,6.41
2019-04-21T01:09:48.888Z,6.46
2019-04-21T01:12:31.513Z,6.42
2019-04-21T01:14:58.139Z,6.32
2019-04-21T01:17:21.970Z,6.26
2019-04-21T01:19:50.649Z,6.26
2019-04-21T01:22:05.193Z,6.22
2019-04-21T01:24:39.579Z,6.18
2019-04-21T01:27:12.079Z,6.19
2019-04-21T01:29:53.431Z,6.30
2019-04-21T01:32:29.623Z,6.31
2019-04-21T01:34:58.356Z,6.30
2019-04-21T01:37:36.082Z,6.30
2019-04-21T01:40:02.321Z,5.94
2019-04-21T01:42:28.524Z,5.70
2019-04-21T01:44:58.272Z,5.96
2019-04-21T01:47:30.300Z,5.88
2019-04-21T01:49:50.127Z,5.92
2019-04-21T01:52:38.261Z,5.68
2019-04-21T01:55:08.324Z,5.67
2019-04-21T01:57:37.506Z,5.62
2019-04-21T02:00:00.858Z,5.44
2019-04-21T02:02:43.712Z,5.66
2019-04-21T02:05:17.215Z,5.76
2019-04-21T02:07:39.015Z,5.80
2019-04-21T02:10:21.073Z,5.68
2019-04-21T02:12:48.718Z,5.67
2019-04-21T02:15:17.085Z,5.48
2019-04-21T02:17:45.887Z,5.38
2019-04-21T02:20:08.154Z,5.36
2019-04-21T02:22:57.429Z,5.36
2019-04-21T02:25:32.145Z,5.36
2019-04-21T02:27:55.080Z,5.32
2019-04-21T02:30:27.548Z,5.18
2019-04-21T02:33:13.699Z,5.20
2019-04-21T02:38:03.609Z,5.37
2019-04-21T02:40:35.795Z,5.03
2019-04-21T02:50:31.745Z,5.09
2019-04-21T03:00:40.594Z,5.01
2019-04-21T03:03:21.379Z,5.04
2019-04-21T03:05:53.832Z,5.13
2019-04-21T03:08:27.942Z,4.91
2019-04-21T03:10:53.757Z,4.93
2019-04-21T03:13:29.950Z,4.91
2019-04-21T03:16:02.923Z,4.96
2019-04-21T03:18:24.340Z,4.83
2019-04-21T03:21:00.243Z,4.71
2019-04-21T03:23:28.054Z,4.76
2019-04-21T03:26:00.914Z,4.62
2019-04-21T03:28:30.566Z,4.48
2019-04-21T03:31:25.192Z,4.63
2019-04-21T03:36:33.487Z,4.40
2019-04-21T03:41:01.515Z,4.26
2019-04-21T03:43:28.193Z,4.38
2019-04-21T03:46:21.109Z,4.26
2019-04-21T03:51:01.041Z,4.36
2019-04-21T04:01:08.054Z,4.33
2019-04-21T04:13:58.092Z,4.29
2019-04-21T04:16:20.331Z,4.23
2019-04-21T04:21:28.701Z,4.15
2019-04-21T04:23:53.453Z,4.10
2019-04-21T04:26:23.950Z,4.12
2019-04-21T04:28:54.248Z,4.10
2019-04-21T04:31:35.367Z,4.19
2019-04-21T04:36:46.537Z,4.05
2019-04-21T04:42:12.763Z,4.10
2019-04-21T04:47:13.068Z,4.11
2019-04-21T04:52:26.298Z,4.10
2019-04-21T04:54:49.134Z,4.17
2019-04-21T04:57:14.185Z,4.22
2019-04-21T04:59:43.122Z,4.12
2019-04-21T05:02:20.033Z,4.28
2019-04-21T05:04:59.383Z,4.21
2019-04-21T05:07:27.432Z,4.34
2019-04-21T05:09:57.570Z,4.60
2019-04-21T05:12:22.789Z,4.78
2019-04-21T05:17:38.202Z,6.11
2019-04-21T05:20:10.318Z,5.97
2019-04-21T05:22:30.638Z,6.29
2019-04-21T05:24:50.723Z,6.48
2019-04-21T05:27:29.347Z,6.23
2019-04-21T05:30:07.273Z,6.33
2019-04-21T05:32:48.876Z,6.42
2019-04-21T05:35:14.162Z,6.37
2019-04-21T05:37:49.634Z,7.11
2019-04-21T05:40:22.178Z,7.11
2019-04-21T05:42:55.714Z,7.03
2019-04-21T05:45:33.469Z,6.98
2019-04-21T05:48:12.175Z,7.73
2019-04-21T05:50:32.086Z,8.24
2019-04-21T05:53:00.769Z,8.37
2019-04-21T05:55:46.110Z,8.45
2019-04-21T05:58:07.048Z,8.38
2019-04-21T06:00:59.202Z,8.61
2019-04-21T06:03:18.459Z,8.26
2019-04-21T06:05:53.457Z,8.92
2019-04-21T06:08:23.510Z,9.12
2019-04-21T06:10:52.350Z,8.90
2019-04-21T06:13:31.944Z,9.12
2019-04-21T06:15:56.210Z,8.86
2019-04-21T06:18:27.388Z,8.47
2019-04-21T06:20:56.933Z,8.31
2019-04-21T06:23:24.087Z,8.41
2019-04-21T06:28:28.659Z,8.99
2019-04-21T06:31:05.517Z,9.01
2019-04-21T06:33:27.467Z,9.52
2019-04-21T06:38:54.266Z,9.36
2019-04-21T06:41:21.562Z,9.34
2019-04-21T06:43:48.208Z,9.68
2019-04-21T06:46:21.084Z,10.45
2019-04-21T06:48:49.827Z,10.26
2019-04-21T06:51:24.080Z,10.92
2019-04-21T06:53:52.434Z,11.30
2019-04-21T06:56:24.134Z,11.15
2019-04-21T06:58:42.833Z,10.94
2019-04-21T07:01:18.928Z,10.70
2019-04-21T07:03:49.017Z,10.74
2019-04-21T07:06:12.646Z,11.77
2019-04-21T07:08:56.528Z,11.71
2019-04-21T07:11:15.315Z,12.05
2019-04-21T07:13:44.118Z,11.72
2019-04-21T07:16:18.755Z,11.57
2019-04-21T07:19:00.029Z,11.85
2019-04-21T07:21:23.449Z,11.88
2019-04-21T07:23:54.289Z,12.61
2019-04-21T07:26:19.395Z,12.55
2019-04-21T07:28:56.244Z,12.68
2019-04-21T07:31:25.352Z,12.59
2019-04-21T07:36:30.585Z,13.39
2019-04-21T07:38:55.599Z,13.21
2019-04-21T07:41:19.579Z,12.87
2019-04-21T07:43:57.198Z,12.93
2019-04-21T07:46:25.712Z,13.08
2019-04-21T07:49:06.825Z,13.96
2019-04-21T07:51:50.908Z,13.71
2019-04-21T07:54:23.817Z,13.63
2019-04-21T07:56:35.201Z,14.15
2019-04-21T07:59:27.253Z,14.75
2019-04-21T08:01:52.721Z,14.33
2019-04-21T08:04:49.605Z,15.17
2019-04-21T08:06:52.007Z,15.99
2019-04-21T08:09:18.281Z,16.42
2019-04-21T08:11:48.789Z,15.04
2019-04-21T08:14:24.180Z,14.83
2019-04-21T08:16:57.727Z,14.96
2019-04-21T08:19:25.207Z,15.23
2019-04-21T08:22:03.839Z,15.63
2019-04-21T08:24:27.327Z,15.36
2019-04-21T08:27:03.213Z,15.27
2019-04-21T08:32:03.187Z,15.48
2019-04-21T08:34:28.403Z,16.11
2019-04-21T08:36:57.503Z,15.48
2019-04-21T08:39:43.622Z,16.09
2019-04-21T08:41:55.946Z,16.68
2019-04-21T08:44:35.273Z,16.08
2019-04-21T08:47:19.098Z,16.33
2019-04-21T08:49:39.301Z,16.78
2019-04-21T08:52:15.232Z,16.20
2019-04-21T08:54:32.497Z,16.80
2019-04-21T08:57:33.223Z,17.45
2019-04-21T09:00:04.897Z,17.68
2019-04-21T09:02:35.589Z,17.53
2019-04-21T09:04:58.633Z,17.87
2019-04-21T09:07:41.313Z,17.54
2019-04-21T09:10:06.855Z,16.42
2019-04-21T09:12:34.626Z,16.93
2019-04-21T09:15:10.763Z,17.34
2019-04-21T09:17:31.560Z,17.88
2019-04-21T09:20:13.964Z,17.81
2019-04-21T09:22:35.823Z,18.04
2019-04-21T09:25:01.618Z,18.77
2019-04-21T09:27:39.408Z,18.88
2019-04-21T09:29:55.679Z,18.88
2019-04-21T09:32:23.840Z,18.71
2019-04-21T09:34:52.694Z,19.52
2019-04-21T09:37:36.686Z,19.37
2019-04-21T09:39:55.143Z,18.59
2019-04-21T09:42:32.335Z,18.92
2019-04-21T09:44:57.945Z,19.28
2019-04-21T09:47:28.651Z,19.39
2019-04-21T09:49:54.397Z,19.95
2019-04-21T09:52:27.010Z,19.84
2019-04-21T09:55:03.909Z,20.04
2019-04-21T09:57:36.626Z,19.90
2019-04-21T10:06:58.769Z,20.61
2019-04-21T10:09:28.887Z,20.68
2019-04-21T10:11:57.865Z,20.38
2019-04-21T10:14:26.578Z,21.07
2019-04-21T10:17:13.309Z,20.33
2019-04-21T10:19:42.067Z,20.74
2019-04-21T10:22:10.755Z,21.17
2019-04-21T10:24:40.513Z,21.04
2019-04-21T10:27:12.234Z,20.66
2019-04-21T10:29:43.200Z,20.64
2019-04-21T10:32:11.334Z,20.81
2019-04-21T10:34:41.240Z,21.22
2019-04-21T10:37:11.161Z,21.25
2019-04-21T10:39:40.038Z,21.23
2019-04-21T10:42:09.010Z,21.15
2019-04-21T10:44:38.854Z,21.39
2019-04-21T10:47:08.795Z,21.38
2019-04-21T10:49:37.619Z,21.69
2019-04-21T10:52:08.908Z,21.78
2019-04-21T10:55:02.062Z,22.25
2019-04-21T10:57:10.440Z,22.38
2019-04-21T10:59:45.741Z,21.47
2019-04-21T11:02:11.189Z,21.84
2019-04-21T11:04:41.642Z,21.59
2019-04-21T11:07:25.522Z,21.13
2019-04-21T11:09:51.880Z,22.11
2019-04-21T11:12:21.760Z,21.34
2019-04-21T11:14:51.483Z,21.70
2019-04-21T11:17:21.758Z,22.20
2019-04-21T11:19:50.712Z,22.06
2019-04-21T11:22:20.835Z,22.31
2019-04-21T11:24:51.057Z,22.03
2019-04-21T11:27:19.920Z,22.19
2019-04-21T11:29:49.442Z,22.56
2019-04-21T11:32:19.088Z,22.56
2019-04-21T11:34:47.807Z,22.18
2019-04-21T11:37:18.074Z,22.57
2019-04-21T11:39:55.337Z,22.68
2019-04-21T11:42:21.655Z,22.43
2019-04-21T11:44:51.491Z,22.40
2019-04-21T11:47:22.705Z,22.52
2019-04-21T11:49:52.802Z,22.61
2019-04-21T11:52:22.852Z,23.03
2019-04-21T11:54:53.059Z,22.99
2019-04-21T11:57:27.630Z,22.70
2019-04-21T11:59:53.692Z,22.65
2019-04-21T12:02:23.504Z,22.20
2019-04-21T12:04:53.514Z,21.95
2019-04-21T12:07:22.958Z,22.25
2019-04-21T12:09:51.676Z,22.51
2019-04-21T12:12:23.660Z,22.66
2019-04-21T12:14:52.374Z,22.34
2019-04-21T12:17:21.106Z,22.32
2019-04-21T12:19:50.682Z,22.07
2019-04-21T12:22:23.600Z,22.73
2019-04-21T12:24:51.219Z,22.97
2019-04-21T12:27:20.353Z,22.85
2019-04-21T12:29:49.370Z,22.68
2019-04-21T12:32:36.033Z,22.92
2019-04-21T12:35:08.121Z,22.49
2019-04-21T12:37:37.153Z,22.35
2019-04-21T12:40:06.681Z,22.89
2019-04-21T12:42:37.608Z,22.99
2019-04-21T12:45:07.959Z,22.72
2019-04-21T12:47:37.778Z,22.77
2019-04-21T12:50:08.748Z,23.09
2019-04-21T12:52:37.910Z,23.52
2019-04-21T12:55:07.130Z,23.17
2019-04-21T12:57:37.144Z,23.37
2019-04-21T13:00:08.986Z,23.15
2019-04-21T13:02:38.050Z,22.98
2019-04-21T13:05:07.633Z,23.03
2019-04-21T13:07:37.401Z,22.62
2019-04-21T13:10:08.512Z,22.97
2019-04-21T13:12:37.975Z,23.45
2019-04-21T13:15:08.722Z,23.59
2019-04-21T13:17:37.409Z,23.71
2019-04-21T13:20:09.545Z,23.42
2019-04-21T13:22:39.690Z,23.79
2019-04-21T13:25:09.635Z,23.17
2019-04-21T13:27:38.781Z,23.59
2019-04-21T13:30:12.668Z,23.60
2019-04-21T13:32:42.906Z,23.53
2019-04-21T13:35:12.918Z,23.04
2019-04-21T13:37:45.629Z,22.94
2019-04-21T13:40:51.788Z,23.43
2019-04-21T13:43:06.648Z,23.82
2019-04-21T13:45:34.480Z,23.69
2019-04-21T13:48:04.476Z,23.90
2019-04-21T13:50:33.427Z,23.61
2019-04-21T13:53:02.783Z,23.69
2019-04-21T13:55:31.913Z,23.69
2019-04-21T13:58:01.990Z,23.83
2019-04-21T14:00:31.771Z,23.70
2019-04-21T14:03:00.914Z,23.65
2019-04-21T14:05:30.690Z,23.37
2019-04-21T14:08:00.856Z,23.51
2019-04-21T14:10:31.348Z,23.90
2019-04-21T14:13:00.517Z,23.48
2019-04-21T14:15:30.375Z,23.70
2019-04-21T14:18:00.271Z,23.73
2019-04-21T14:20:29.203Z,24.22
2019-04-21T14:23:10.079Z,23.94
2019-04-21T14:25:28.248Z,22.73
2019-04-21T14:27:57.867Z,22.87
2019-04-21T14:30:28.423Z,23.18
2019-04-21T14:32:58.147Z,23.54
2019-04-21T14:35:27.188Z,23.43
2019-04-21T14:37:56.584Z,23.71
2019-04-21T14:40:29.422Z,23.83
2019-04-21T14:42:58.336Z,23.30
2019-04-21T14:45:28.709Z,23.25
2019-04-21T14:48:07.144Z,23.13
2019-04-21T14:53:34.015Z,23.60
2019-04-21T14:56:03.689Z,23.96
2019-04-21T14:58:32.973Z,23.70
2019-04-21T15:01:04.235Z,23.58
2019-04-21T15:03:34.189Z,23.57
2019-04-21T15:06:03.306Z,23.02
2019-04-21T15:08:33.293Z,23.16
2019-04-21T15:11:03.200Z,23.14
2019-04-21T15:13:32.348Z,23.37
2019-04-21T15:16:01.087Z,23.67
2019-04-21T15:18:30.644Z,23.64
2019-04-21T15:20:59.541Z,23.66
2019-04-21T15:23:30.020Z,23.56
2019-04-21T15:25:59.925Z,23.25
2019-04-21T15:28:32.082Z,23.31
2019-04-21T15:31:00.642Z,23.59
2019-04-21T15:33:30.670Z,22.97
2019-04-21T15:36:01.253Z,22.46
2019-04-21T15:38:29.961Z,22.24
2019-04-21T15:41:04.094Z,22.49
2019-04-21T15:43:28.958Z,23.10
2019-04-21T15:45:57.681Z,22.72
2019-04-21T15:48:26.732Z,22.63
2019-04-21T15:50:56.766Z,22.09
2019-04-21T15:53:29.921Z,21.76
2019-04-21T15:56:02.569Z,21.35
2019-04-21T15:58:36.767Z,20.57
2019-04-21T16:01:14.355Z,20.20
2019-04-21T16:03:44.759Z,20.18
2019-04-21T16:06:13.881Z,19.97
2019-04-21T16:08:46.573Z,19.77
2019-04-21T16:11:13.638Z,19.60
2019-04-21T16:13:43.608Z,19.69
2019-04-21T16:16:12.748Z,19.40
2019-04-21T16:18:42.638Z,19.27
2019-04-21T16:21:11.807Z,19.20
2019-04-21T16:23:40.630Z,19.27
2019-04-21T16:26:10.916Z,19.28
2019-04-21T16:28:39.680Z,19.15
2019-04-21T16:31:08.419Z,19.15
2019-04-21T16:33:37.126Z,18.82
2019-04-21T16:36:08.707Z,18.62
2019-04-21T16:38:37.880Z,18.59
2019-04-21T16:41:11.625Z,18.50
2019-04-21T16:43:38.538Z,18.53
2019-04-21T16:46:08.759Z,18.33
2019-04-21T16:48:39.896Z,18.24
2019-04-21T16:51:09.912Z,17.99
2019-04-21T16:53:41.740Z,17.99
2019-04-21T16:56:15.194Z,17.89
2019-04-21T16:58:50.434Z,17.71
2019-04-21T17:01:30.159Z,17.78
2019-04-21T17:04:00.310Z,17.64
2019-04-21T17:06:31.052Z,17.39
2019-04-21T17:09:02.906Z,17.49
2019-04-21T17:11:35.343Z,17.32
2019-04-21T17:14:03.591Z,17.13
2019-04-21T17:19:13.483Z,17.19
2019-04-21T17:21:34.238Z,16.94
2019-04-21T17:24:04.339Z,16.86
2019-04-21T17:26:36.243Z,16.67
2019-04-21T17:29:04.843Z,16.75
2019-04-21T17:31:34.053Z,16.89
2019-04-21T17:34:11.539Z,16.85
2019-04-21T17:36:34.958Z,16.87
2019-04-21T17:39:08.819Z,16.88
2019-04-21T17:41:48.806Z,16.65
2019-04-21T17:44:08.764Z,16.60
2019-04-21T17:46:46.103Z,16.31
2019-04-21T17:49:08.641Z,16.11
2019-04-21T17:51:55.129Z,16.15
2019-04-21T17:54:31.660Z,16.21
2019-04-21T17:57:18.280Z,16.02
2019-04-21T17:59:58.870Z,15.96
2019-04-21T18:02:17.433Z,15.88
2019-04-21T18:04:49.269Z,15.79
2019-04-21T18:07:31.495Z,15.73
2019-04-21T18:10:11.455Z,15.66
2019-04-21T18:12:31.857Z,15.51
2019-04-21T18:14:57.931Z,15.23
2019-04-21T18:17:18.519Z,15.01
2019-04-21T18:19:50.969Z,14.60
2019-04-21T18:22:19.703Z,14.51
2019-04-21T18:24:59.323Z,14.47
2019-04-21T18:27:21.950Z,14.44
2019-04-21T18:29:56.070Z,14.48
2019-04-21T18:32:30.230Z,14.26
2019-04-21T18:35:14.146Z,14.23
2019-04-21T18:37:59.787Z,14.55
2019-04-21T18:40:27.913Z,14.44
2019-04-21T18:43:23.826Z,14.38
2019-04-21T18:48:19.437Z,14.27
2019-04-21T18:50:50.926Z,14.18
2019-04-21T18:53:41.530Z,14.18
2019-04-21T18:55:59.971Z,14.06
2019-04-21T18:58:26.517Z,13.97
2019-04-21T19:01:03.220Z,13.65
2019-04-21T19:03:35.215Z,13.55
2019-04-21T19:06:04.911Z,13.67
2019-04-21T19:08:46.882Z,13.59
2019-04-21T19:11:22.200Z,13.53
2019-04-21T19:14:28.981Z,13.47
2019-04-21T19:19:36.614Z,13.63
2019-04-21T19:21:40.353Z,13.63
2019-04-21T19:26:57.460Z,13.28
2019-04-21T19:29:26.696Z,13.39
2019-04-21T19:31:49.599Z,13.36
2019-04-21T19:34:12.938Z,13.46
2019-04-21T19:36:34.983Z,13.30
2019-04-21T19:39:11.554Z,13.32
2019-04-21T19:41:55.549Z,13.14
2019-04-21T19:44:30.646Z,13.14
2019-04-21T19:46:59.633Z,13.17
2019-04-21T19:49:32.142Z,12.99
2019-04-21T19:51:52.257Z,13.02
2019-04-21T19:54:22.106Z,13.04
2019-04-21T19:56:44.891Z,13.03
2019-04-21T19:59:20.025Z,13.12
2019-04-21T20:01:46.713Z,12.92
2019-04-21T20:04:12.874Z,12.92
2019-04-21T20:06:51.835Z,12.64
2019-04-21T20:09:28.100Z,12.44
2019-04-21T20:12:00.902Z,12.50
2019-04-21T20:14:46.790Z,12.55
2019-04-21T20:16:57.730Z,12.61
2019-04-21T20:19:15.514Z,12.54
2019-04-21T20:21:45.099Z,12.57
2019-04-21T20:24:17.627Z,12.50
2019-04-21T20:26:54.686Z,12.42
2019-04-21T20:29:32.384Z,12.30
2019-04-21T20:32:04.349Z,12.35
2019-04-21T20:34:34.221Z,12.34
2019-04-21T20:37:12.714Z,12.08
2019-04-21T20:39:21.278Z,12.06
2019-04-21T20:42:01.730Z,11.96
2019-04-21T20:44:36.905Z,11.91
2019-04-21T20:46:59.782Z,11.86
2019-04-21T20:49:28.526Z,11.97
2019-04-21T20:52:15.471Z,11.90
2019-04-21T20:54:35.979Z,11.74
2019-04-21T20:57:06.150Z,11.76
2019-04-21T20:59:35.648Z,11.73
2019-04-21T21:02:05.662Z,11.79
2019-04-21T21:04:31.712Z,11.77
2019-04-21T21:07:15.824Z,11.76
2019-04-21T21:09:41.476Z,11.65
2019-04-21T21:12:22.253Z,11.57
2019-04-21T21:14:40.638Z,11.53
2019-04-21T21:17:13.248Z,11.52
2019-04-21T21:19:48.710Z,11.49
2019-04-21T21:22:04.001Z,11.42
2019-04-21T21:25:01.343Z,11.24
2019-04-21T21:27:12.816Z,11.04
2019-04-21T21:29:45.179Z,11.23
2019-04-21T21:32:22.574Z,11.43
2019-04-21T21:34:45.792Z,11.45
2019-04-21T21:37:21.257Z,11.26
2019-04-21T21:39:55.211Z,11.02
2019-04-21T21:42:01.856Z,10.92
2019-04-21T21:44:30.230Z,10.83
2019-04-21T21:47:10.779Z,10.60
2019-04-21T21:49:47.117Z,10.66
2019-04-21T21:52:09.316Z,10.56
2019-04-21T21:54:31.842Z,10.55
2019-04-21T21:57:00.785Z,10.32
2019-04-21T21:59:33.117Z,10.41
2019-04-21T22:02:01.665Z,10.50
2019-04-21T22:04:33.812Z,10.29
2019-04-21T22:07:07.845Z,10.27
2019-04-21T22:09:32.281Z,10.29
2019-04-21T22:12:06.593Z,10.29
2019-04-21T22:14:40.844Z,10.24
2019-04-21T22:17:22.086Z,9.88
2019-04-21T22:19:58.060Z,9.86
2019-04-21T22:22:21.023Z,10.01
2019-04-21T22:24:52.343Z,9.75
2019-04-21T22:27:07.365Z,9.85
2019-04-21T22:29:41.784Z,9.84
2019-04-21T22:32:13.192Z,9.71
2019-04-21T22:34:46.790Z,9.65
2019-04-21T22:37:28.925Z,9.57
2019-04-21T22:39:53.049Z,9.42
2019-04-21T22:42:15.718Z,9.36
2019-04-21T22:44:38.588Z,9.08
2019-04-21T22:47:14.154Z,9.43
2019-04-21T22:49:38.771Z,9.38
2019-04-21T22:52:13.923Z,9.34
2019-04-21T22:54:41.775Z,9.39
2019-04-21T22:57:14.844Z,9.37
2019-04-21T22:59:40.485Z,9.13
2019-04-21T23:02:17.648Z,9.18
2019-04-21T23:04:48.914Z,9.17
2019-04-21T23:07:15.855Z,8.98
2019-04-21T23:09:43.228Z,9.00
2019-04-21T23:12:19.387Z,8.98
2019-04-21T23:14:49.557Z,8.83
2019-04-21T23:17:33.928Z,8.75
2019-04-21T23:20:05.633Z,8.92
2019-04-21T23:22:34.061Z,8.86
2019-04-21T23:25:03.064Z,8.75
2019-04-21T23:27:34.321Z,8.65
2019-04-21T23:30:08.408Z,8.61
2019-04-21T23:32:30.458Z,8.64
2019-04-21T23:34:47.738Z,8.33
2019-04-21T23:37:20.282Z,8.50
2019-04-21T23:39:47.727Z,8.43
2019-04-21T23:42:26.076Z,8.43
2019-04-21T23:44:52.640Z,8.37
2019-04-21T23:47:31.875Z,8.16
2019-04-21T23:49:57.730Z,8.16
2019-04-21T23:52:19.756Z,8.36
2019-04-21T23:54:49.336Z,8.13
2019-04-21T23:57:28.745Z,7.97
2019-04-21T23:59:53.401Z,7.91
